sensor_id;sensor_type;location;lat;lon;timestamp;temperature;humidity
52509;DHT22;38420;53.150;6.370;2022-12-05T00:00:30;4.50;99.90
52509;DHT22;38420;53.150;6.370;2022-12-05T00:02:56;4.50;99.90
52509;DHT22;38420;53.150;6.370;2022-12-05T00:05:21;4.60;99.90
52509;DHT22;38420;53.150;6.370;2022-12-05T00:07:47;4.50;99.90
52509;DHT22;38420;53.150;6.370;2022-12-05T00:10:13;4.50;99.90
52509;DHT22;38420;53.150;6.370;2022-12-05T00:12:38;4.60;99.90
52509;DHT22;38420;53.150;6.370;2022-12-05T00:15:04;4.60;99.90
52509;DHT22;38420;53.150;6.370;2022-12-05T00:17:31;4.60;99.90
52509;DHT22;38420;53.150;6.370;2022-12-05T00:19:57;4.60;99.90
52509;DHT22;38420;53.150;6.370;2022-12-05T00:22:23;4.60;99.90
52509;DHT22;38420;53.150;6.370;2022-12-05T00:24:48;4.70;99.90
52509;DHT22;38420;53.150;6.370;2022-12-05T00:27:14;4.70;99.90
52509;DHT22;38420;53.150;6.370;2022-12-05T00:29:40;4.60;99.90
52509;DHT22;38420;53.150;6.370;2022-12-05T00:32:05;4.60;99.90
52509;DHT22;38420;53.150;6.370;2022-12-05T00:34:31;4.60;99.90
52509;DHT22;38420;53.150;6.370;2022-12-05T00:36:56;4.70;99.90
52509;DHT22;38420;53.150;6.370;2022-12-05T00:39:22;4.70;99.90
52509;DHT22;38420;53.150;6.370;2022-12-05T00:41:47;4.70;99.90
52509;DHT22;38420;53.150;6.370;2022-12-05T00:44:13;4.70;99.90
52509;DHT22;38420;53.150;6.370;2022-12-05T00:46:39;4.80;99.90
52509;DHT22;38420;53.150;6.370;2022-12-05T00:49:06;4.70;99.90
52509;DHT22;38420;53.150;6.370;2022-12-05T00:51:42;4.80;99.90
52509;DHT22;38420;53.150;6.370;2022-12-05T00:54:12;4.80;99.90
52509;DHT22;38420;53.150;6.370;2022-12-05T00:56:38;4.70;99.90
52509;DHT22;38420;53.150;6.370;2022-12-05T00:59:05;4.80;99.90
52509;DHT22;38420;53.150;6.370;2022-12-05T01:01:37;4.80;99.90
52509;DHT22;38420;53.150;6.370;2022-12-05T01:04:15;4.80;99.90
52509;DHT22;38420;53.150;6.370;2022-12-05T01:06:42;4.80;99.90
52509;DHT22;38420;53.150;6.370;2022-12-05T01:09:10;4.80;99.90
52509;DHT22;38420;53.150;6.370;2022-12-05T01:11:35;4.80;99.90
52509;DHT22;38420;53.150;6.370;2022-12-05T01:14:01;4.80;99.90
52509;DHT22;38420;53.150;6.370;2022-12-05T01:16:30;4.90;99.90
52509;DHT22;38420;53.150;6.370;2022-12-05T01:18:57;4.80;99.90
52509;DHT22;38420;53.150;6.370;2022-12-05T01:21:23;4.90;99.90
52509;DHT22;38420;53.150;6.370;2022-12-05T01:23:49;4.90;99.90
52509;DHT22;38420;53.150;6.370;2022-12-05T01:26:18;4.80;99.90
52509;DHT22;38420;53.150;6.370;2022-12-05T01:28:44;4.90;99.90
52509;DHT22;38420;53.150;6.370;2022-12-05T01:31:26;5.00;99.90
52509;DHT22;38420;53.150;6.370;2022-12-05T01:33:54;5.00;99.90
52509;DHT22;38420;53.150;6.370;2022-12-05T01:36:21;6.00;99.90
52509;DHT22;38420;53.150;6.370;2022-12-05T01:38:47;4.90;99.90
52509;DHT22;38420;53.150;6.370;2022-12-05T01:41:16;5.00;99.90
52509;DHT22;38420;53.150;6.370;2022-12-05T01:43:59;5.00;99.90
52509;DHT22;38420;53.150;6.370;2022-12-05T01:46:26;5.00;99.90
52509;DHT22;38420;53.150;6.370;2022-12-05T01:48:57;5.90;99.90
52509;DHT22;38420;53.150;6.370;2022-12-05T01:51:24;5.00;99.90
52509;DHT22;38420;53.150;6.370;2022-12-05T01:53:50;5.20;99.90
52509;DHT22;38420;53.150;6.370;2022-12-05T01:56:16;5.10;99.90
52509;DHT22;38420;53.150;6.370;2022-12-05T01:58:43;5.00;99.90
52509;DHT22;38420;53.150;6.370;2022-12-05T02:01:11;5.20;99.90
52509;DHT22;38420;53.150;6.370;2022-12-05T02:03:39;5.00;99.90
52509;DHT22;38420;53.150;6.370;2022-12-05T02:06:05;5.10;99.90
52509;DHT22;38420;53.150;6.370;2022-12-05T02:08:31;5.10;99.90
52509;DHT22;38420;53.150;6.370;2022-12-05T02:10:57;5.20;99.90
52509;DHT22;38420;53.150;6.370;2022-12-05T02:13:56;5.10;99.90
52509;DHT22;38420;53.150;6.370;2022-12-05T02:28:13;5.20;99.90
52509;DHT22;38420;53.150;6.370;2022-12-05T02:30:58;5.40;99.90
52509;DHT22;38420;53.150;6.370;2022-12-05T02:33:47;5.30;99.90
52509;DHT22;38420;53.150;6.370;2022-12-05T02:42:17;5.30;99.90
52509;DHT22;38420;53.150;6.370;2022-12-05T02:44:53;5.40;99.90
52509;DHT22;38420;53.150;6.370;2022-12-05T02:47:23;5.40;99.90
52509;DHT22;38420;53.150;6.370;2022-12-05T02:49:50;5.20;99.90
52509;DHT22;38420;53.150;6.370;2022-12-05T02:52:18;5.20;99.90
52509;DHT22;38420;53.150;6.370;2022-12-05T02:54:46;5.30;99.90
52509;DHT22;38420;53.150;6.370;2022-12-05T02:57:14;5.20;99.90
52509;DHT22;38420;53.150;6.370;2022-12-05T02:59:41;5.30;99.90
52509;DHT22;38420;53.150;6.370;2022-12-05T03:02:08;5.30;99.90
52509;DHT22;38420;53.150;6.370;2022-12-05T03:04:44;5.40;99.90
52509;DHT22;38420;53.150;6.370;2022-12-05T03:07:11;5.20;99.90
52509;DHT22;38420;53.150;6.370;2022-12-05T03:09:53;5.50;99.90
52509;DHT22;38420;53.150;6.370;2022-12-05T03:12:25;5.30;99.90
52509;DHT22;38420;53.150;6.370;2022-12-05T03:15:00;5.30;99.90
52509;DHT22;38420;53.150;6.370;2022-12-05T03:17:31;5.40;99.90
52509;DHT22;38420;53.150;6.370;2022-12-05T03:22:41;5.40;99.90
52509;DHT22;38420;53.150;6.370;2022-12-05T03:25:09;5.40;99.90
52509;DHT22;38420;53.150;6.370;2022-12-05T03:27:49;5.40;99.90
52509;DHT22;38420;53.150;6.370;2022-12-05T03:30:17;5.30;99.90
52509;DHT22;38420;53.150;6.370;2022-12-05T03:33:22;4.60;99.90
52509;DHT22;38420;53.150;6.370;2022-12-05T03:35:57;5.40;99.90
52509;DHT22;38420;53.150;6.370;2022-12-05T03:41:25;5.30;99.90
52509;DHT22;38420;53.150;6.370;2022-12-05T03:46:34;5.20;99.90
52509;DHT22;38420;53.150;6.370;2022-12-05T03:49:08;5.30;99.90
52509;DHT22;38420;53.150;6.370;2022-12-05T03:51:42;5.20;99.90
52509;DHT22;38420;53.150;6.370;2022-12-05T03:54:16;5.20;99.90
52509;DHT22;38420;53.150;6.370;2022-12-05T03:56:47;5.30;99.90
52509;DHT22;38420;53.150;6.370;2022-12-05T04:01:44;5.20;99.90
52509;DHT22;38420;53.150;6.370;2022-12-05T04:04:15;5.40;99.90
52509;DHT22;38420;53.150;6.370;2022-12-05T04:06:44;5.30;99.90
52509;DHT22;38420;53.150;6.370;2022-12-05T04:09:17;5.10;99.90
52509;DHT22;38420;53.150;6.370;2022-12-05T04:12:17;5.20;99.90
52509;DHT22;38420;53.150;6.370;2022-12-05T04:14:47;5.30;99.90
52509;DHT22;38420;53.150;6.370;2022-12-05T04:17:41;5.10;99.90
52509;DHT22;38420;53.150;6.370;2022-12-05T04:20:16;5.10;99.90
52509;DHT22;38420;53.150;6.370;2022-12-05T04:23:02;5.30;99.90
52509;DHT22;38420;53.150;6.370;2022-12-05T04:25:35;5.30;99.90
52509;DHT22;38420;53.150;6.370;2022-12-05T04:31:06;5.20;99.90
52509;DHT22;38420;53.150;6.370;2022-12-05T04:36:12;5.30;99.90
52509;DHT22;38420;53.150;6.370;2022-12-05T04:41:15;5.30;99.90
52509;DHT22;38420;53.150;6.370;2022-12-05T04:43:43;5.10;99.90
52509;DHT22;38420;53.150;6.370;2022-12-05T04:46:11;5.20;99.90
52509;DHT22;38420;53.150;6.370;2022-12-05T04:48:39;5.30;99.90
52509;DHT22;38420;53.150;6.370;2022-12-05T04:51:08;5.40;99.90
52509;DHT22;38420;53.150;6.370;2022-12-05T04:53:40;5.20;99.90
52509;DHT22;38420;53.150;6.370;2022-12-05T04:56:08;5.20;99.90
52509;DHT22;38420;53.150;6.370;2022-12-05T04:58:34;5.20;99.90
52509;DHT22;38420;53.150;6.370;2022-12-05T05:01:21;5.30;99.90
52509;DHT22;38420;53.150;6.370;2022-12-05T05:04:00;5.20;99.90
52509;DHT22;38420;53.150;6.370;2022-12-05T05:06:27;5.10;99.90
52509;DHT22;38420;53.150;6.370;2022-12-05T05:08:56;5.10;99.90
52509;DHT22;38420;53.150;6.370;2022-12-05T05:13:49;5.30;99.90
52509;DHT22;38420;53.150;6.370;2022-12-05T05:16:20;5.40;99.90
52509;DHT22;38420;53.150;6.370;2022-12-05T05:18:47;5.40;99.90
52509;DHT22;38420;53.150;6.370;2022-12-05T05:21:35;5.10;99.90
52509;DHT22;38420;53.150;6.370;2022-12-05T05:24:01;5.40;99.90
52509;DHT22;38420;53.150;6.370;2022-12-05T05:26:28;5.10;99.90
52509;DHT22;38420;53.150;6.370;2022-12-05T05:28:55;5.20;99.90
52509;DHT22;38420;53.150;6.370;2022-12-05T05:31:21;5.20;99.90
52509;DHT22;38420;53.150;6.370;2022-12-05T05:33:48;5.10;99.90
52509;DHT22;38420;53.150;6.370;2022-12-05T05:36:14;5.20;99.90
52509;DHT22;38420;53.150;6.370;2022-12-05T05:38:42;5.30;99.90
52509;DHT22;38420;53.150;6.370;2022-12-05T05:41:19;5.30;99.90
52509;DHT22;38420;53.150;6.370;2022-12-05T05:43:46;5.40;99.90
52509;DHT22;38420;53.150;6.370;2022-12-05T05:46:12;5.10;99.90
52509;DHT22;38420;53.150;6.370;2022-12-05T05:48:38;5.30;99.90
52509;DHT22;38420;53.150;6.370;2022-12-05T05:51:06;5.40;99.90
52509;DHT22;38420;53.150;6.370;2022-12-05T05:53:32;5.10;99.90
52509;DHT22;38420;53.150;6.370;2022-12-05T05:56:03;5.40;99.90
52509;DHT22;38420;53.150;6.370;2022-12-05T05:58:29;5.20;99.90
52509;DHT22;38420;53.150;6.370;2022-12-05T06:00:54;5.30;99.90
52509;DHT22;38420;53.150;6.370;2022-12-05T06:03:26;5.10;99.90
52509;DHT22;38420;53.150;6.370;2022-12-05T06:05:59;5.40;99.90
52509;DHT22;38420;53.150;6.370;2022-12-05T06:08:24;5.40;99.90
52509;DHT22;38420;53.150;6.370;2022-12-05T06:10:50;5.40;99.90
52509;DHT22;38420;53.150;6.370;2022-12-05T06:13:16;5.40;99.90
52509;DHT22;38420;53.150;6.370;2022-12-05T06:15:41;5.40;99.90
52509;DHT22;38420;53.150;6.370;2022-12-05T06:18:07;5.10;99.90
52509;DHT22;38420;53.150;6.370;2022-12-05T06:20:32;5.20;99.90
52509;DHT22;38420;53.150;6.370;2022-12-05T06:22:58;5.40;99.90
52509;DHT22;38420;53.150;6.370;2022-12-05T06:25:23;5.10;99.90
52509;DHT22;38420;53.150;6.370;2022-12-05T06:27:49;5.40;99.90
52509;DHT22;38420;53.150;6.370;2022-12-05T06:30:15;5.50;99.90
52509;DHT22;38420;53.150;6.370;2022-12-05T06:32:40;5.10;99.90
52509;DHT22;38420;53.150;6.370;2022-12-05T06:35:06;5.10;99.90
52509;DHT22;38420;53.150;6.370;2022-12-05T06:37:40;5.30;99.90
52509;DHT22;38420;53.150;6.370;2022-12-05T06:40:06;5.10;99.90
52509;DHT22;38420;53.150;6.370;2022-12-05T06:42:32;5.10;99.90
52509;DHT22;38420;53.150;6.370;2022-12-05T06:44:57;5.40;99.90
52509;DHT22;38420;53.150;6.370;2022-12-05T06:47:23;5.30;99.90
52509;DHT22;38420;53.150;6.370;2022-12-05T06:49:49;5.50;99.90
52509;DHT22;38420;53.150;6.370;2022-12-05T06:52:14;5.10;99.90
52509;DHT22;38420;53.150;6.370;2022-12-05T06:54:40;5.30;99.90
52509;DHT22;38420;53.150;6.370;2022-12-05T06:57:05;5.50;99.90
52509;DHT22;38420;53.150;6.370;2022-12-05T06:59:31;5.40;99.90
52509;DHT22;38420;53.150;6.370;2022-12-05T07:01:56;5.20;99.90
52509;DHT22;38420;53.150;6.370;2022-12-05T07:04:22;5.30;99.90
52509;DHT22;38420;53.150;6.370;2022-12-05T07:06:53;5.10;99.90
52509;DHT22;38420;53.150;6.370;2022-12-05T07:09:21;5.40;99.90
52509;DHT22;38420;53.150;6.370;2022-12-05T07:11:50;5.20;99.90
52509;DHT22;38420;53.150;6.370;2022-12-05T07:14:16;5.30;99.90
52509;DHT22;38420;53.150;6.370;2022-12-05T07:16:42;5.40;99.90
52509;DHT22;38420;53.150;6.370;2022-12-05T07:19:09;5.10;99.90
52509;DHT22;38420;53.150;6.370;2022-12-05T07:21:35;5.40;99.90
52509;DHT22;38420;53.150;6.370;2022-12-05T07:24:00;5.10;99.90
52509;DHT22;38420;53.150;6.370;2022-12-05T07:26:26;5.50;99.90
52509;DHT22;38420;53.150;6.370;2022-12-05T07:28:55;5.30;99.90
52509;DHT22;38420;53.150;6.370;2022-12-05T07:31:22;5.20;99.90
52509;DHT22;38420;53.150;6.370;2022-12-05T07:33:51;5.20;99.90
52509;DHT22;38420;53.150;6.370;2022-12-05T07:36:19;5.10;99.90
52509;DHT22;38420;53.150;6.370;2022-12-05T07:38:45;5.60;99.90
52509;DHT22;38420;53.150;6.370;2022-12-05T07:41:22;5.10;99.90
52509;DHT22;38420;53.150;6.370;2022-12-05T07:43:53;5.50;99.90
52509;DHT22;38420;53.150;6.370;2022-12-05T07:46:19;5.40;99.90
52509;DHT22;38420;53.150;6.370;2022-12-05T07:48:44;5.60;99.90
52509;DHT22;38420;53.150;6.370;2022-12-05T07:51:11;5.20;99.90
52509;DHT22;38420;53.150;6.370;2022-12-05T07:53:37;5.20;99.90
52509;DHT22;38420;53.150;6.370;2022-12-05T07:56:05;5.60;99.90
52509;DHT22;38420;53.150;6.370;2022-12-05T07:58:33;5.60;99.90
52509;DHT22;38420;53.150;6.370;2022-12-05T08:01:09;5.20;99.90
52509;DHT22;38420;53.150;6.370;2022-12-05T08:03:36;5.30;99.90
52509;DHT22;38420;53.150;6.370;2022-12-05T08:06:07;5.50;99.90
52509;DHT22;38420;53.150;6.370;2022-12-05T08:08:32;5.30;99.90
52509;DHT22;38420;53.150;6.370;2022-12-05T08:11:22;5.20;99.90
52509;DHT22;38420;53.150;6.370;2022-12-05T08:13:48;5.70;99.90
52509;DHT22;38420;53.150;6.370;2022-12-05T08:16:17;5.60;99.90
52509;DHT22;38420;53.150;6.370;2022-12-05T08:18:43;6.40;99.90
52509;DHT22;38420;53.150;6.370;2022-12-05T08:21:14;5.40;99.90
52509;DHT22;38420;53.150;6.370;2022-12-05T08:23:40;5.50;99.90
52509;DHT22;38420;53.150;6.370;2022-12-05T08:26:14;5.20;99.90
52509;DHT22;38420;53.150;6.370;2022-12-05T08:28:41;5.50;99.90
52509;DHT22;38420;53.150;6.370;2022-12-05T08:31:14;5.50;99.90
52509;DHT22;38420;53.150;6.370;2022-12-05T08:33:41;5.30;99.90
52509;DHT22;38420;53.150;6.370;2022-12-05T08:36:09;5.60;99.90
52509;DHT22;38420;53.150;6.370;2022-12-05T08:38:35;5.70;99.90
52509;DHT22;38420;53.150;6.370;2022-12-05T08:41:07;5.60;99.90
52509;DHT22;38420;53.150;6.370;2022-12-05T08:43:33;5.30;99.90
52509;DHT22;38420;53.150;6.370;2022-12-05T08:45:59;5.70;99.90
52509;DHT22;38420;53.150;6.370;2022-12-05T08:48:26;5.50;99.90
52509;DHT22;38420;53.150;6.370;2022-12-05T08:50:52;5.60;99.90
52509;DHT22;38420;53.150;6.370;2022-12-05T08:53:17;5.40;99.90
52509;DHT22;38420;53.150;6.370;2022-12-05T08:55:43;5.60;99.90
52509;DHT22;38420;53.150;6.370;2022-12-05T08:58:10;5.70;99.90
52509;DHT22;38420;53.150;6.370;2022-12-05T09:00:36;5.30;99.90
52509;DHT22;38420;53.150;6.370;2022-12-05T09:03:02;5.60;99.90
52509;DHT22;38420;53.150;6.370;2022-12-05T09:05:27;5.60;99.90
52509;DHT22;38420;53.150;6.370;2022-12-05T09:07:53;5.70;99.90
52509;DHT22;38420;53.150;6.370;2022-12-05T09:10:19;5.50;99.90
52509;DHT22;38420;53.150;6.370;2022-12-05T09:12:45;5.40;99.90
52509;DHT22;38420;53.150;6.370;2022-12-05T09:15:11;5.60;99.90
52509;DHT22;38420;53.150;6.370;2022-12-05T09:17:37;5.50;99.90
52509;DHT22;38420;53.150;6.370;2022-12-05T09:20:05;5.30;99.90
52509;DHT22;38420;53.150;6.370;2022-12-05T09:22:31;5.60;99.90
52509;DHT22;38420;53.150;6.370;2022-12-05T09:24:57;5.30;99.90
52509;DHT22;38420;53.150;6.370;2022-12-05T09:27:22;5.70;99.90
52509;DHT22;38420;53.150;6.370;2022-12-05T09:29:48;5.30;99.90
52509;DHT22;38420;53.150;6.370;2022-12-05T09:32:14;5.70;99.90
52509;DHT22;38420;53.150;6.370;2022-12-05T09:34:39;5.50;99.90
52509;DHT22;38420;53.150;6.370;2022-12-05T09:37:05;5.50;99.90
52509;DHT22;38420;53.150;6.370;2022-12-05T09:39:32;5.30;99.90
52509;DHT22;38420;53.150;6.370;2022-12-05T09:45:17;5.70;99.90
52509;DHT22;38420;53.150;6.370;2022-12-05T09:48:10;5.70;99.90
52509;DHT22;38420;53.150;6.370;2022-12-05T09:50:56;5.50;99.90
52509;DHT22;38420;53.150;6.370;2022-12-05T09:53:24;5.40;99.90
52509;DHT22;38420;53.150;6.370;2022-12-05T09:56:04;5.60;99.90
52509;DHT22;38420;53.150;6.370;2022-12-05T10:03:45;5.70;99.90
52509;DHT22;38420;53.150;6.370;2022-12-05T10:06:18;5.40;99.90
52509;DHT22;38420;53.150;6.370;2022-12-05T10:09:11;5.60;99.90
52509;DHT22;38420;53.150;6.370;2022-12-05T10:14:30;5.60;99.90
52509;DHT22;38420;53.150;6.370;2022-12-05T10:17:03;5.60;99.90
52509;DHT22;38420;53.150;6.370;2022-12-05T10:19:41;5.60;99.90
52509;DHT22;38420;53.150;6.370;2022-12-05T10:22:16;5.40;99.90
52509;DHT22;38420;53.150;6.370;2022-12-05T10:24:46;5.40;99.90
52509;DHT22;38420;53.150;6.370;2022-12-05T10:27:23;5.50;99.90
52509;DHT22;38420;53.150;6.370;2022-12-05T10:30:11;5.40;99.90
52509;DHT22;38420;53.150;6.370;2022-12-05T10:33:01;5.30;99.90
52509;DHT22;38420;53.150;6.370;2022-12-05T10:35:35;5.60;99.90
52509;DHT22;38420;53.150;6.370;2022-12-05T10:38:11;5.50;99.90
52509;DHT22;38420;53.150;6.370;2022-12-05T10:40:39;5.70;99.90
52509;DHT22;38420;53.150;6.370;2022-12-05T10:43:07;5.50;99.90
52509;DHT22;38420;53.150;6.370;2022-12-05T10:45:46;5.50;99.90
52509;DHT22;38420;53.150;6.370;2022-12-05T10:48:14;5.70;99.90
52509;DHT22;38420;53.150;6.370;2022-12-05T10:50:42;5.60;99.90
52509;DHT22;38420;53.150;6.370;2022-12-05T10:53:14;5.50;99.90
52509;DHT22;38420;53.150;6.370;2022-12-05T10:55:42;5.30;99.90
52509;DHT22;38420;53.150;6.370;2022-12-05T10:58:17;5.50;99.90
52509;DHT22;38420;53.150;6.370;2022-12-05T11:00:48;5.70;99.90
52509;DHT22;38420;53.150;6.370;2022-12-05T11:03:32;6.30;99.90
52509;DHT22;38420;53.150;6.370;2022-12-05T11:06:00;5.60;99.90
52509;DHT22;38420;53.150;6.370;2022-12-05T11:08:29;5.60;99.90
52509;DHT22;38420;53.150;6.370;2022-12-05T11:11:07;5.70;99.90
52509;DHT22;38420;53.150;6.370;2022-12-05T11:18:51;5.50;99.90
52509;DHT22;38420;53.150;6.370;2022-12-05T11:21:18;5.70;99.90
52509;DHT22;38420;53.150;6.370;2022-12-05T11:23:45;5.60;99.90
52509;DHT22;38420;53.150;6.370;2022-12-05T11:26:35;5.40;99.90
52509;DHT22;38420;53.150;6.370;2022-12-05T11:29:03;5.70;99.90
52509;DHT22;38420;53.150;6.370;2022-12-05T11:31:30;5.70;99.90
52509;DHT22;38420;53.150;6.370;2022-12-05T11:36:47;5.40;99.90
52509;DHT22;38420;53.150;6.370;2022-12-05T11:39:15;5.40;99.90
52509;DHT22;38420;53.150;6.370;2022-12-05T11:44:51;5.10;99.90
52509;DHT22;38420;53.150;6.370;2022-12-05T11:50:12;5.60;99.90
52509;DHT22;38420;53.150;6.370;2022-12-05T11:55:51;5.70;99.90
52509;DHT22;38420;53.150;6.370;2022-12-05T12:01:18;5.80;99.90
52509;DHT22;38420;53.150;6.370;2022-12-05T12:03:59;5.90;99.90
52509;DHT22;38420;53.150;6.370;2022-12-05T12:06:44;5.90;99.90
52509;DHT22;38420;53.150;6.370;2022-12-05T12:12:16;5.90;99.90
52509;DHT22;38420;53.150;6.370;2022-12-05T12:14:58;6.00;99.90
52509;DHT22;38420;53.150;6.370;2022-12-05T12:17:48;5.60;99.90
52509;DHT22;38420;53.150;6.370;2022-12-05T12:20:50;5.90;99.90
52509;DHT22;38420;53.150;6.370;2022-12-05T12:23:31;5.50;99.90
52509;DHT22;38420;53.150;6.370;2022-12-05T12:26:13;5.50;99.90
52509;DHT22;38420;53.150;6.370;2022-12-05T12:31:30;6.00;99.90
52509;DHT22;38420;53.150;6.370;2022-12-05T12:34:03;5.60;99.90
52509;DHT22;38420;53.150;6.370;2022-12-05T12:36:49;5.90;99.90
52509;DHT22;38420;53.150;6.370;2022-12-05T12:50:36;5.90;99.90
52509;DHT22;38420;53.150;6.370;2022-12-05T12:53:24;5.60;99.90
52509;DHT22;38420;53.150;6.370;2022-12-05T13:01:36;5.70;99.90
52509;DHT22;38420;53.150;6.370;2022-12-05T13:04:17;5.80;99.90
52509;DHT22;38420;53.150;6.370;2022-12-05T13:06:50;5.50;99.90
52509;DHT22;38420;53.150;6.370;2022-12-05T13:11:45;5.90;99.90
52509;DHT22;38420;53.150;6.370;2022-12-05T13:14:15;5.60;99.90
52509;DHT22;38420;53.150;6.370;2022-12-05T13:16:44;5.50;99.90
52509;DHT22;38420;53.150;6.370;2022-12-05T13:19:23;5.90;99.90
52509;DHT22;38420;53.150;6.370;2022-12-05T13:21:50;5.90;99.90
52509;DHT22;38420;53.150;6.370;2022-12-05T13:24:18;5.60;99.90
52509;DHT22;38420;53.150;6.370;2022-12-05T13:26:47;5.60;99.90
52509;DHT22;38420;53.150;6.370;2022-12-05T13:29:47;5.80;99.90
52509;DHT22;38420;53.150;6.370;2022-12-05T13:32:27;5.80;99.90
52509;DHT22;38420;53.150;6.370;2022-12-05T13:34:54;5.70;99.90
52509;DHT22;38420;53.150;6.370;2022-12-05T13:37:28;5.30;99.90
52509;DHT22;38420;53.150;6.370;2022-12-05T13:40:28;5.70;99.90
52509;DHT22;38420;53.150;6.370;2022-12-05T13:43:15;5.30;99.90
52509;DHT22;38420;53.150;6.370;2022-12-05T13:46:01;5.60;99.90
52509;DHT22;38420;53.150;6.370;2022-12-05T13:48:30;5.70;99.90
52509;DHT22;38420;53.150;6.370;2022-12-05T13:51:06;5.40;99.90
52509;DHT22;38420;53.150;6.370;2022-12-05T13:53:45;5.50;99.90
52509;DHT22;38420;53.150;6.370;2022-12-05T14:03:55;5.40;99.90
52509;DHT22;38420;53.150;6.370;2022-12-05T14:09:00;5.60;99.90
52509;DHT22;38420;53.150;6.370;2022-12-05T14:11:26;5.20;99.90
52509;DHT22;38420;53.150;6.370;2022-12-05T14:13:52;5.50;99.90
52509;DHT22;38420;53.150;6.370;2022-12-05T14:18:57;5.60;99.90
52509;DHT22;38420;53.150;6.370;2022-12-05T14:24:35;5.60;99.90
52509;DHT22;38420;53.150;6.370;2022-12-05T14:30:22;5.50;99.90
52509;DHT22;38420;53.150;6.370;2022-12-05T14:32:50;5.70;99.90
52509;DHT22;38420;53.150;6.370;2022-12-05T14:35:22;5.30;99.90
52509;DHT22;38420;53.150;6.370;2022-12-05T14:37:52;5.40;99.90
52509;DHT22;38420;53.150;6.370;2022-12-05T14:43:06;5.60;99.90
52509;DHT22;38420;53.150;6.370;2022-12-05T14:45:43;5.80;99.90
52509;DHT22;38420;53.150;6.370;2022-12-05T14:50:48;5.70;99.90
52509;DHT22;38420;53.150;6.370;2022-12-05T14:55:56;5.50;99.90
52509;DHT22;38420;53.150;6.370;2022-12-05T15:01:00;5.80;99.90
52509;DHT22;38420;53.150;6.370;2022-12-05T15:03:39;5.40;99.90
52509;DHT22;38420;53.150;6.370;2022-12-05T15:06:10;5.40;99.90
52509;DHT22;38420;53.150;6.370;2022-12-05T15:08:50;5.40;99.90
52509;DHT22;38420;53.150;6.370;2022-12-05T15:11:20;5.60;99.90
52509;DHT22;38420;53.150;6.370;2022-12-05T15:14:18;5.70;99.90
52509;DHT22;38420;53.150;6.370;2022-12-05T15:16:44;5.70;99.90
52509;DHT22;38420;53.150;6.370;2022-12-05T15:19:17;5.50;99.90
52509;DHT22;38420;53.150;6.370;2022-12-05T15:21:55;5.40;99.90
52509;DHT22;38420;53.150;6.370;2022-12-05T15:24:22;5.70;99.90
52509;DHT22;38420;53.150;6.370;2022-12-05T15:26:55;5.20;99.90
52509;DHT22;38420;53.150;6.370;2022-12-05T15:31:53;5.70;99.90
52509;DHT22;38420;53.150;6.370;2022-12-05T15:37:17;5.60;99.90
52509;DHT22;38420;53.150;6.370;2022-12-05T15:39:58;5.70;99.90
52509;DHT22;38420;53.150;6.370;2022-12-05T15:42:29;5.40;99.90
52509;DHT22;38420;53.150;6.370;2022-12-05T15:47:37;5.40;99.90
52509;DHT22;38420;53.150;6.370;2022-12-05T15:50:03;5.30;99.90
52509;DHT22;38420;53.150;6.370;2022-12-05T15:52:51;5.40;99.90
52509;DHT22;38420;53.150;6.370;2022-12-05T15:58:02;5.60;99.90
52509;DHT22;38420;53.150;6.370;2022-12-05T16:00:33;5.20;99.90
52509;DHT22;38420;53.150;6.370;2022-12-05T16:03:13;5.20;99.90
52509;DHT22;38420;53.150;6.370;2022-12-05T16:05:57;5.70;99.90
52509;DHT22;38420;53.150;6.370;2022-12-05T16:08:25;5.20;99.90
52509;DHT22;38420;53.150;6.370;2022-12-05T16:10:55;5.20;99.90
52509;DHT22;38420;53.150;6.370;2022-12-05T16:13:23;5.60;99.90
52509;DHT22;38420;53.150;6.370;2022-12-05T16:15:52;5.40;99.90
52509;DHT22;38420;53.150;6.370;2022-12-05T16:18:24;5.60;99.90
52509;DHT22;38420;53.150;6.370;2022-12-05T16:20:51;5.20;99.90
52509;DHT22;38420;53.150;6.370;2022-12-05T16:23:27;5.70;99.90
52509;DHT22;38420;53.150;6.370;2022-12-05T16:26:19;5.10;99.90
52509;DHT22;38420;53.150;6.370;2022-12-05T16:29:00;5.50;99.90
52509;DHT22;38420;53.150;6.370;2022-12-05T16:31:30;5.50;99.90
52509;DHT22;38420;53.150;6.370;2022-12-05T16:34:15;5.60;99.90
52509;DHT22;38420;53.150;6.370;2022-12-05T16:36:48;5.20;99.90
52509;DHT22;38420;53.150;6.370;2022-12-05T16:39:14;5.10;99.90
52509;DHT22;38420;53.150;6.370;2022-12-05T16:41:40;5.70;99.90
52509;DHT22;38420;53.150;6.370;2022-12-05T16:47:24;5.80;99.90
52509;DHT22;38420;53.150;6.370;2022-12-05T16:49:50;5.50;99.90
52509;DHT22;38420;53.150;6.370;2022-12-05T16:52:16;5.10;99.90
52509;DHT22;38420;53.150;6.370;2022-12-05T16:54:44;5.30;99.90
52509;DHT22;38420;53.150;6.370;2022-12-05T16:57:15;5.20;99.90
52509;DHT22;38420;53.150;6.370;2022-12-05T16:59:42;5.20;99.90
52509;DHT22;38420;53.150;6.370;2022-12-05T17:02:13;5.70;99.90
52509;DHT22;38420;53.150;6.370;2022-12-05T17:04:39;5.70;99.90
52509;DHT22;38420;53.150;6.370;2022-12-05T17:07:05;5.20;99.90
52509;DHT22;38420;53.150;6.370;2022-12-05T17:09:30;5.10;99.90
52509;DHT22;38420;53.150;6.370;2022-12-05T17:12:12;5.20;99.90
52509;DHT22;38420;53.150;6.370;2022-12-05T17:14:41;5.50;99.90
52509;DHT22;38420;53.150;6.370;2022-12-05T17:17:12;5.40;99.90
52509;DHT22;38420;53.150;6.370;2022-12-05T17:19:38;5.10;99.90
52509;DHT22;38420;53.150;6.370;2022-12-05T17:22:04;5.60;99.90
52509;DHT22;38420;53.150;6.370;2022-12-05T17:24:31;5.10;99.90
52509;DHT22;38420;53.150;6.370;2022-12-05T17:26:56;5.50;99.90
52509;DHT22;38420;53.150;6.370;2022-12-05T17:29:22;5.30;99.90
52509;DHT22;38420;53.150;6.370;2022-12-05T17:31:47;5.60;99.90
52509;DHT22;38420;53.150;6.370;2022-12-05T17:34:15;5.70;99.90
52509;DHT22;38420;53.150;6.370;2022-12-05T17:36:42;5.10;99.90
52509;DHT22;38420;53.150;6.370;2022-12-05T17:39:08;5.10;99.90
52509;DHT22;38420;53.150;6.370;2022-12-05T17:41:34;5.20;99.90
52509;DHT22;38420;53.150;6.370;2022-12-05T17:43:59;5.40;99.90
52509;DHT22;38420;53.150;6.370;2022-12-05T17:46:25;5.10;99.90
52509;DHT22;38420;53.150;6.370;2022-12-05T17:48:51;6.00;99.90
52509;DHT22;38420;53.150;6.370;2022-12-05T17:51:17;5.10;99.90
52509;DHT22;38420;53.150;6.370;2022-12-05T17:53:43;5.10;99.90
52509;DHT22;38420;53.150;6.370;2022-12-05T17:56:10;5.10;99.90
52509;DHT22;38420;53.150;6.370;2022-12-05T17:58:36;5.30;99.90
52509;DHT22;38420;53.150;6.370;2022-12-05T18:01:01;5.10;99.90
52509;DHT22;38420;53.150;6.370;2022-12-05T18:03:28;5.50;99.90
52509;DHT22;38420;53.150;6.370;2022-12-05T18:05:54;5.30;99.90
52509;DHT22;38420;53.150;6.370;2022-12-05T18:08:20;5.10;99.90
52509;DHT22;38420;53.150;6.370;2022-12-05T18:10:47;5.10;99.90
52509;DHT22;38420;53.150;6.370;2022-12-05T18:13:14;5.10;99.90
52509;DHT22;38420;53.150;6.370;2022-12-05T18:15:40;5.10;99.90
52509;DHT22;38420;53.150;6.370;2022-12-05T18:18:07;5.50;99.90
52509;DHT22;38420;53.150;6.370;2022-12-05T18:20:34;5.20;99.90
52509;DHT22;38420;53.150;6.370;2022-12-05T18:23:00;5.30;99.90
52509;DHT22;38420;53.150;6.370;2022-12-05T18:25:27;5.20;99.90